createdAt,value
2023-11-12T00:00:39.066Z,11.20
2023-11-12T00:03:06.033Z,9.20
2023-11-12T00:05:32.968Z,10.60
2023-11-12T00:07:59.754Z,10.07
2023-11-12T00:10:27.911Z,10.03
2023-11-12T00:12:54.762Z,10.27
2023-11-12T00:15:21.936Z,10.10
2023-11-12T00:17:48.834Z,9.57
2023-11-12T00:20:16.567Z,8.73
2023-11-12T00:22:44.909Z,10.33
2023-11-12T00:25:14.970Z,10.00
2023-11-12T00:27:42.165Z,9.17
2023-11-12T00:30:10.467Z,10.07
2023-11-12T00:32:38.118Z,9.00
2023-11-12T00:35:06.638Z,9.80
2023-11-12T00:37:34.033Z,11.03
2023-11-12T00:40:01.333Z,10.70
2023-11-12T00:42:28.506Z,10.80
2023-11-12T00:44:55.447Z,10.50
2023-11-12T00:47:22.326Z,10.20
2023-11-12T00:49:49.723Z,11.20
2023-11-12T00:52:17.437Z,10.47
2023-11-12T00:54:44.393Z,10.30
2023-11-12T00:57:11.230Z,9.83
2023-11-12T00:59:38.085Z,10.60
2023-11-12T01:02:05.181Z,10.47
2023-11-12T01:04:32.902Z,10.87
2023-11-12T01:06:59.748Z,9.67
2023-11-12T01:09:28.084Z,10.77
2023-11-12T01:11:55.563Z,10.70
2023-11-12T01:14:22.826Z,10.10
2023-11-12T01:16:49.897Z,9.37
2023-11-12T01:19:17.382Z,11.27
2023-11-12T01:21:44.405Z,11.07
2023-11-12T01:24:11.289Z,10.27
2023-11-12T01:26:38.438Z,10.10
2023-11-12T01:29:05.401Z,10.80
2023-11-12T01:31:33.194Z,10.70
2023-11-12T01:34:01.046Z,9.60
2023-11-12T01:36:28.022Z,11.97
2023-11-12T01:38:54.899Z,10.50
2023-11-12T01:41:21.742Z,10.33
2023-11-12T01:43:48.621Z,10.10
2023-11-12T01:46:15.704Z,10.50
2023-11-12T01:48:42.665Z,10.17
2023-11-12T01:51:10.455Z,9.93
2023-11-12T01:53:40.042Z,10.10
2023-11-12T01:56:11.783Z,9.60
2023-11-12T01:58:40.344Z,9.40
2023-11-12T02:01:07.207Z,10.27
2023-11-12T02:03:35.935Z,9.33
2023-11-12T02:06:04.783Z,9.10
2023-11-12T02:08:31.998Z,10.47
2023-11-12T02:11:00.611Z,9.57
2023-11-12T02:13:27.466Z,10.80
2023-11-12T02:15:55.038Z,9.37
2023-11-12T02:18:21.887Z,9.43
2023-11-12T02:20:49.734Z,8.30
2023-11-12T02:23:16.943Z,10.67
2023-11-12T02:25:45.454Z,9.07
2023-11-12T02:28:17.091Z,8.33
2023-11-12T02:30:44.313Z,8.63
2023-11-12T02:33:11.524Z,8.07
2023-11-12T02:35:43.931Z,7.93
2023-11-12T02:38:14.152Z,7.80
2023-11-12T02:40:41.044Z,8.23
2023-11-12T02:43:08.311Z,8.23
2023-11-12T02:45:35.272Z,7.97
2023-11-12T02:48:02.931Z,9.27
2023-11-12T02:50:34.111Z,7.80
2023-11-12T02:53:02.532Z,7.90
2023-11-12T02:55:31.157Z,7.73
2023-11-12T02:57:58.637Z,8.87
2023-11-12T03:00:29.165Z,8.30
2023-11-12T03:03:02.343Z,8.13
2023-11-12T03:05:30.875Z,8.33
2023-11-12T03:08:00.878Z,8.10
2023-11-12T03:10:28.093Z,8.40
2023-11-12T03:12:55.460Z,8.23
2023-11-12T03:15:25.130Z,8.20
2023-11-12T03:17:52.365Z,8.40
2023-11-12T03:20:19.385Z,7.43
2023-11-12T03:22:46.306Z,8.13
2023-11-12T03:25:13.182Z,9.00
2023-11-12T03:27:40.196Z,7.60
2023-11-12T03:30:09.499Z,8.37
2023-11-12T03:32:36.513Z,7.97
2023-11-12T03:35:03.684Z,7.60
2023-11-12T03:37:30.925Z,9.10
2023-11-12T03:39:57.970Z,8.90
2023-11-12T03:42:24.915Z,6.73
2023-11-12T03:44:51.778Z,8.40
2023-11-12T03:47:18.726Z,7.47
2023-11-12T03:49:46.134Z,7.57
2023-11-12T03:52:13.522Z,7.10
2023-11-12T03:54:40.492Z,7.80
2023-11-12T03:57:08.904Z,7.53
2023-11-12T03:59:37.409Z,7.90
2023-11-12T04:02:07.388Z,8.47
2023-11-12T04:04:34.377Z,7.50
2023-11-12T04:07:01.385Z,7.30
2023-11-12T04:09:28.486Z,8.70
2023-11-12T04:11:55.487Z,8.10
2023-11-12T04:14:22.405Z,9.17
2023-11-12T04:16:49.265Z,8.80
2023-11-12T04:19:16.223Z,8.40
2023-11-12T04:21:45.959Z,8.60
2023-11-12T04:24:12.815Z,8.40
2023-11-12T04:26:39.688Z,8.60
2023-11-12T04:29:08.140Z,7.77
2023-11-12T04:31:36.674Z,8.30
2023-11-12T04:34:04.068Z,8.20
2023-11-12T04:36:32.027Z,7.70
2023-11-12T04:38:59.203Z,8.60
2023-11-12T04:43:54.556Z,8.63
2023-11-12T04:46:22.222Z,8.10
2023-11-12T04:48:49.181Z,9.13
2023-11-12T04:51:18.416Z,7.93
2023-11-12T04:53:45.572Z,8.00
2023-11-12T04:56:12.989Z,7.80
2023-11-12T04:58:40.202Z,8.07
2023-11-12T05:01:07.905Z,8.47
2023-11-12T05:03:35.275Z,8.43
2023-11-12T05:06:02.461Z,8.77
2023-11-12T05:08:29.644Z,7.93
2023-11-12T05:10:57.001Z,8.03
2023-11-12T05:13:24.163Z,8.63
2023-11-12T05:15:51.157Z,8.17
2023-11-12T05:18:18.503Z,9.20
2023-11-12T05:20:45.435Z,8.50
2023-11-12T05:23:12.283Z,9.30
2023-11-12T05:25:39.053Z,9.60
2023-11-12T05:28:07.704Z,9.77
2023-11-12T05:30:35.060Z,8.57
2023-11-12T05:33:02.614Z,8.77
2023-11-12T05:35:30.650Z,8.60
2023-11-12T05:37:57.784Z,9.67
2023-11-12T05:40:24.581Z,8.90
2023-11-12T05:42:51.403Z,8.80
2023-11-12T05:45:19.347Z,8.80
2023-11-12T05:47:47.151Z,9.20
2023-11-12T05:50:14.122Z,10.30
2023-11-12T05:52:41.075Z,10.03
2023-11-12T05:55:08.167Z,8.67
2023-11-12T05:57:35.029Z,9.87
2023-11-12T06:00:01.902Z,8.50
2023-11-12T06:02:28.745Z,9.80
2023-11-12T06:04:55.591Z,8.53
2023-11-12T06:07:22.387Z,9.47
2023-11-12T06:09:49.409Z,9.37
2023-11-12T06:12:16.772Z,9.13
2023-11-12T06:14:46.117Z,10.20
2023-11-12T06:17:15.102Z,10.73
2023-11-12T06:19:41.897Z,9.60
2023-11-12T06:22:08.894Z,9.43
2023-11-12T06:24:35.790Z,9.90
2023-11-12T06:27:02.609Z,10.67
2023-11-12T06:29:30.011Z,10.00
2023-11-12T06:31:57.012Z,10.50
2023-11-12T06:34:23.923Z,9.97
2023-11-12T06:36:50.846Z,10.60
2023-11-12T06:39:17.893Z,10.27
2023-11-12T06:41:45.069Z,10.60
2023-11-12T06:44:13.611Z,10.90
2023-11-12T06:46:47.033Z,9.90
2023-11-12T07:10:30.059Z,10.97
2023-11-12T07:12:58.211Z,11.13
2023-11-12T07:15:25.177Z,12.73
2023-11-12T07:17:52.052Z,11.97
2023-11-12T07:20:19.824Z,12.13
2023-11-12T07:22:48.262Z,13.50
2023-11-12T07:25:15.062Z,11.53
2023-11-12T07:27:44.733Z,12.47
2023-11-12T07:30:12.257Z,12.67
2023-11-12T07:32:39.064Z,13.40
2023-11-12T07:35:09.284Z,11.30
2023-11-12T07:37:37.369Z,13.00
2023-11-12T07:40:05.219Z,13.33
2023-11-12T07:42:32.043Z,11.10
2023-11-12T07:45:06.671Z,11.20
2023-11-12T07:47:40.200Z,12.70
2023-11-12T07:50:07.373Z,12.70
2023-11-12T07:52:34.324Z,10.80
2023-11-12T07:55:01.123Z,12.70
2023-11-12T07:57:28.018Z,11.27
2023-11-12T07:59:54.833Z,13.60
2023-11-12T08:02:23.549Z,11.53
2023-11-12T08:04:50.331Z,11.90
2023-11-12T08:07:17.227Z,12.73
2023-11-12T08:09:49.805Z,11.10
2023-11-12T08:12:17.317Z,12.60
2023-11-12T08:14:44.157Z,12.87
2023-11-12T08:17:11.056Z,12.63
2023-11-12T08:19:37.874Z,12.80
2023-11-12T08:22:04.878Z,13.53
2023-11-12T08:24:32.972Z,12.90
2023-11-12T08:27:00.485Z,12.87
2023-11-12T08:29:29.135Z,11.67
2023-11-12T08:31:55.923Z,11.07
2023-11-12T08:34:22.860Z,11.93
2023-11-12T08:36:53.563Z,12.53
2023-11-12T08:39:20.388Z,11.60
2023-11-12T08:41:47.925Z,11.03
2023-11-12T08:44:14.800Z,11.37
2023-11-12T08:46:42.434Z,12.77
2023-11-12T08:49:09.836Z,10.03
2023-11-12T08:51:36.962Z,10.30
2023-11-12T08:54:04.163Z,10.93
2023-11-12T08:56:31.040Z,10.73
2023-11-12T08:59:00.779Z,11.17
2023-11-12T09:01:27.694Z,12.07
2023-11-12T09:03:54.647Z,11.60
2023-11-12T09:06:21.555Z,11.40
2023-11-12T09:08:48.629Z,10.10
2023-11-12T09:11:16.245Z,10.30
2023-11-12T09:13:43.937Z,9.90
2023-11-12T09:16:12.127Z,9.00
2023-11-12T09:18:39.680Z,8.60
2023-11-12T09:21:06.696Z,8.20
2023-11-12T09:23:33.573Z,7.60
2023-11-12T09:26:00.564Z,6.60
2023-11-12T09:28:27.325Z,5.87
2023-11-12T09:30:59.801Z,5.40
2023-11-12T09:33:28.101Z,5.93
2023-11-12T09:35:55.260Z,6.70
2023-11-12T09:38:22.475Z,8.17
2023-11-12T09:40:51.007Z,6.90
2023-11-12T09:43:18.238Z,7.07
2023-11-12T09:45:46.749Z,6.93
2023-11-12T09:48:25.658Z,7.30
2023-11-12T09:50:53.583Z,6.73
2023-11-12T09:53:20.663Z,7.00
2023-11-12T09:55:47.597Z,7.00
2023-11-12T09:58:14.661Z,7.00
2023-11-12T10:00:44.403Z,6.60
2023-11-12T10:03:12.040Z,6.10
2023-11-12T10:05:40.024Z,6.90
2023-11-12T10:08:06.960Z,7.10
2023-11-12T10:10:35.416Z,6.40
2023-11-12T10:13:05.638Z,6.17
2023-11-12T10:15:35.770Z,5.83
2023-11-12T10:18:04.849Z,4.27
2023-11-12T10:20:37.244Z,4.47
2023-11-12T10:23:05.082Z,4.60
2023-11-12T10:25:43.202Z,4.20
2023-11-12T10:28:11.714Z,4.80
2023-11-12T10:30:40.534Z,4.37
2023-11-12T10:33:29.009Z,4.30
2023-11-12T10:35:59.144Z,3.63
2023-11-12T10:38:26.293Z,3.47
2023-11-12T10:40:59.166Z,3.73
2023-11-12T10:43:26.468Z,4.13
2023-11-12T10:46:00.187Z,3.87
2023-11-12T10:48:47.922Z,4.17
2023-11-12T10:51:15.079Z,5.37
2023-11-12T10:53:43.470Z,5.67
2023-11-12T10:56:11.782Z,5.77
2023-11-12T10:58:38.767Z,5.50
2023-11-12T11:01:08.253Z,6.07
2023-11-12T11:03:35.848Z,9.13
2023-11-12T11:06:04.336Z,7.50
2023-11-12T11:08:32.142Z,8.90
2023-11-12T11:11:08.241Z,9.50
2023-11-12T11:13:37.180Z,13.27
2023-11-12T11:16:04.408Z,12.27
2023-11-12T11:18:50.227Z,13.07
2023-11-12T11:21:17.534Z,14.60
2023-11-12T11:23:55.064Z,13.00
2023-11-12T11:26:40.968Z,15.30
2023-11-12T11:29:16.586Z,16.37
2023-11-12T11:31:55.513Z,15.00
2023-11-12T11:34:39.325Z,15.53
2023-11-12T11:37:06.218Z,14.93
2023-11-12T11:39:33.836Z,14.47
2023-11-12T11:42:03.393Z,13.97
2023-11-12T11:44:39.479Z,15.67
2023-11-12T11:47:27.416Z,15.17
2023-11-12T11:50:00.381Z,14.53
2023-11-12T11:52:29.438Z,11.93
2023-11-12T11:55:03.474Z,12.53
2023-11-12T11:57:30.914Z,10.83
2023-11-12T11:59:59.444Z,10.20
2023-11-12T12:02:27.297Z,9.60
2023-11-12T12:04:57.720Z,12.07
2023-11-12T12:07:32.580Z,9.07
2023-11-12T12:10:01.935Z,9.83
2023-11-12T12:12:29.478Z,8.40
2023-11-12T12:14:56.726Z,7.90
2023-11-12T12:17:24.413Z,9.10
2023-11-12T12:19:57.498Z,8.60
2023-11-12T12:22:28.785Z,9.77
2023-11-12T12:24:57.560Z,9.27
2023-11-12T12:27:25.419Z,9.33
2023-11-12T12:29:52.898Z,9.33
2023-11-12T12:32:21.280Z,9.07
2023-11-12T12:35:00.974Z,10.20
2023-11-12T12:37:30.191Z,9.50
2023-11-12T12:40:03.167Z,9.70
2023-11-12T12:42:31.127Z,10.30
2023-11-12T12:44:58.429Z,10.53
2023-11-12T12:47:35.826Z,10.43
2023-11-12T12:50:31.167Z,9.40
2023-11-12T12:53:28.574Z,9.47
2023-11-12T12:55:57.085Z,10.13
2023-11-12T12:58:39.022Z,8.60
2023-11-12T13:01:06.376Z,10.90
2023-11-12T13:03:34.470Z,9.07
2023-11-12T13:06:01.396Z,7.77
2023-11-12T13:08:29.778Z,8.10
2023-11-12T13:10:56.683Z,8.23
2023-11-12T13:13:25.488Z,7.70
2023-11-12T13:15:52.598Z,8.43
2023-11-12T13:18:20.586Z,8.13
2023-11-12T13:20:49.101Z,7.97
2023-11-12T13:23:17.541Z,7.93
2023-11-12T13:25:44.325Z,7.77
2023-11-12T13:28:13.110Z,7.67
2023-11-12T13:30:40.086Z,7.10
2023-11-12T13:33:08.572Z,8.40
2023-11-12T13:35:35.712Z,7.63
2023-11-12T13:38:02.542Z,6.73
2023-11-12T13:40:29.285Z,7.50
2023-11-12T13:42:56.371Z,8.20
2023-11-12T13:45:23.902Z,7.70
2023-11-12T13:47:50.772Z,8.17
2023-11-12T13:50:25.662Z,8.27
2023-11-12T13:52:59.877Z,7.27
2023-11-12T13:55:30.224Z,7.60
2023-11-12T13:57:58.288Z,7.60
2023-11-12T14:00:31.684Z,7.03
2023-11-12T14:03:00.365Z,7.37
2023-11-12T14:05:27.926Z,7.40
2023-11-12T14:07:58.840Z,7.60
2023-11-12T14:10:26.189Z,7.67
2023-11-12T14:12:53.696Z,6.73
2023-11-12T14:15:22.966Z,6.97
2023-11-12T14:17:50.320Z,6.57
2023-11-12T14:32:27.449Z,8.60
2023-11-12T14:34:55.719Z,8.17
2023-11-12T14:37:23.095Z,8.53
2023-11-12T14:39:50.628Z,7.77
2023-11-12T14:42:17.507Z,8.37
2023-11-12T14:44:44.248Z,7.03
2023-11-12T14:47:11.043Z,7.60
2023-11-12T14:49:37.865Z,8.00
2023-11-12T14:52:06.151Z,7.40
2023-11-12T14:54:33.897Z,6.47
2023-11-12T14:57:00.665Z,7.07
2023-11-12T14:59:28.709Z,7.90
2023-11-12T15:01:55.679Z,7.50
2023-11-12T15:04:23.303Z,7.50
2023-11-12T15:06:53.009Z,8.13
2023-11-12T15:09:22.466Z,11.87
2023-11-12T15:11:49.204Z,12.07
2023-11-12T15:14:16.358Z,10.50
2023-11-12T15:16:44.074Z,11.47
2023-11-12T15:19:12.200Z,10.27
2023-11-12T15:21:45.099Z,9.60
2023-11-12T15:24:12.461Z,10.63
2023-11-12T15:26:45.384Z,10.97
2023-11-12T15:29:12.541Z,11.23
2023-11-12T15:31:39.530Z,12.30
2023-11-12T15:34:10.032Z,11.50
2023-11-12T15:36:38.616Z,10.63
2023-11-12T15:39:08.597Z,11.07
2023-11-12T15:41:35.471Z,9.83
2023-11-12T15:44:02.372Z,8.97
2023-11-12T15:46:29.199Z,9.30
2023-11-12T15:48:56.940Z,11.10
2023-11-12T15:51:23.748Z,11.70
2023-11-12T15:53:50.564Z,17.87
2023-11-12T15:56:17.633Z,15.60
2023-11-12T15:58:44.485Z,14.00
2023-11-12T16:01:12.651Z,12.80
2023-11-12T16:03:39.626Z,11.60
2023-11-12T16:06:06.740Z,14.00
2023-11-12T16:08:33.656Z,13.57
2023-11-12T16:11:00.477Z,11.90
2023-11-12T16:13:27.280Z,11.40
2023-11-12T16:15:54.557Z,12.40
2023-11-12T16:18:21.551Z,12.90
2023-11-12T16:20:48.764Z,10.20
2023-11-12T16:23:16.861Z,8.93
2023-11-12T16:25:43.724Z,9.23
2023-11-12T16:28:11.038Z,8.33
2023-11-12T16:30:38.807Z,9.33
2023-11-12T16:33:05.716Z,9.17
2023-11-12T16:35:33.537Z,9.77
2023-11-12T16:38:05.246Z,9.30
2023-11-12T16:40:38.501Z,8.33
2023-11-12T16:43:05.829Z,9.33
2023-11-12T16:45:32.710Z,9.43
2023-11-12T16:48:00.026Z,8.67
2023-11-12T16:50:27.502Z,7.70
2023-11-12T16:52:55.373Z,8.37
2023-11-12T16:55:22.638Z,7.43
2023-11-12T16:57:50.122Z,7.37
2023-11-12T17:00:22.944Z,8.80
2023-11-12T17:02:49.886Z,9.23
2023-11-12T17:05:20.319Z,8.70
2023-11-12T17:07:48.356Z,8.23
2023-11-12T17:10:15.772Z,7.30
2023-11-12T17:12:43.378Z,7.23
2023-11-12T17:15:11.333Z,7.30
2023-11-12T17:17:39.448Z,7.93
2023-11-12T17:20:07.261Z,8.50
2023-11-12T17:22:35.431Z,8.30
2023-11-12T17:25:03.692Z,8.53
2023-11-12T17:27:30.951Z,9.30
2023-11-12T17:29:57.811Z,7.50
2023-11-12T17:32:26.138Z,8.60
2023-11-12T17:34:54.256Z,8.80
2023-11-12T17:37:25.914Z,9.53
2023-11-12T17:39:52.799Z,7.77
2023-11-12T17:42:20.291Z,8.57
2023-11-12T17:44:47.039Z,9.93
2023-11-12T17:47:14.873Z,8.10
2023-11-12T17:49:43.955Z,5.80
2023-11-12T17:52:12.379Z,3.07
2023-11-12T17:54:39.399Z,4.70
2023-11-12T17:57:06.853Z,4.70
2023-11-12T17:59:33.701Z,4.47
2023-11-12T18:02:00.687Z,5.53
2023-11-12T18:04:27.688Z,5.90
2023-11-12T18:06:56.322Z,6.27
2023-11-12T18:09:24.241Z,6.60
2023-11-12T18:11:51.426Z,7.20
2023-11-12T18:14:18.228Z,8.27
2023-11-12T18:16:48.849Z,8.53
2023-11-12T18:19:15.900Z,8.90
2023-11-12T18:21:43.355Z,10.33
2023-11-12T18:24:10.688Z,11.23
2023-11-12T18:26:38.551Z,9.03
2023-11-12T18:29:06.990Z,11.47
2023-11-12T18:31:36.361Z,10.83
2023-11-12T18:34:03.244Z,9.77
2023-11-12T18:36:31.932Z,11.90
2023-11-12T18:38:59.242Z,11.50
2023-11-12T18:41:26.093Z,10.60
2023-11-12T18:43:52.974Z,9.73
2023-11-12T18:46:20.884Z,10.87
2023-11-12T18:48:48.350Z,10.67
2023-11-12T18:51:16.625Z,9.40
2023-11-12T18:53:47.352Z,9.90
2023-11-12T18:56:14.366Z,8.90
2023-11-12T18:58:41.248Z,8.60
2023-11-12T19:01:13.658Z,9.20
2023-11-12T19:03:40.594Z,9.60
2023-11-12T19:06:07.611Z,8.90
2023-11-12T19:08:36.475Z,10.73
2023-11-12T19:11:03.230Z,10.53
2023-11-12T19:13:29.966Z,9.77
2023-11-12T19:15:57.310Z,9.70
2023-11-12T19:18:24.608Z,9.57
2023-11-12T19:20:51.614Z,9.97
2023-11-12T19:23:18.625Z,9.23
2023-11-12T19:25:45.445Z,8.80
2023-11-12T19:28:12.290Z,9.53
2023-11-12T19:30:39.132Z,8.50
2023-11-12T19:33:08.439Z,8.50
2023-11-12T19:35:35.762Z,8.50
2023-11-12T19:38:03.585Z,8.90
2023-11-12T19:40:30.517Z,9.60
2023-11-12T19:42:57.400Z,12.70
2023-11-12T19:45:24.247Z,10.73
2023-11-12T19:47:53.305Z,9.47
2023-11-12T19:50:26.449Z,10.53
2023-11-12T19:52:53.202Z,8.77
2023-11-12T19:55:21.348Z,10.67
2023-11-12T19:57:53.229Z,8.83
2023-11-12T20:00:21.432Z,10.57
2023-11-12T20:02:51.597Z,10.73
2023-11-12T20:05:18.951Z,10.27
2023-11-12T20:07:45.742Z,9.47
2023-11-12T20:10:12.703Z,8.47
2023-11-12T20:12:39.744Z,10.37
2023-11-12T20:15:09.290Z,9.10
2023-11-12T20:17:37.098Z,10.27
2023-11-12T20:20:04.691Z,9.17
2023-11-12T20:22:32.947Z,9.90
2023-11-12T20:25:00.151Z,9.97
2023-11-12T20:27:27.144Z,9.33
2023-11-12T20:29:57.046Z,12.93
2023-11-12T20:32:23.911Z,13.90
2023-11-12T20:34:51.494Z,11.93
2023-11-12T20:37:20.069Z,11.53
2023-11-12T20:39:47.094Z,12.30
2023-11-12T20:42:14.459Z,11.03
2023-11-12T20:44:42.068Z,12.27
2023-11-12T20:47:14.481Z,13.70
2023-11-12T20:49:43.180Z,12.53
2023-11-12T20:52:10.172Z,10.80
2023-11-12T20:54:38.518Z,11.83
2023-11-12T20:57:07.325Z,11.40
2023-11-12T20:59:34.493Z,11.07
2023-11-12T21:02:10.061Z,11.80
2023-11-12T21:04:45.453Z,10.50
2023-11-12T21:07:13.910Z,11.17
2023-11-12T21:09:41.125Z,10.17
2023-11-12T21:12:08.958Z,10.03
2023-11-12T21:14:35.853Z,11.60
2023-11-12T21:17:02.770Z,11.53
2023-11-12T21:19:29.686Z,10.83
2023-11-12T21:21:57.330Z,10.67
2023-11-12T21:24:24.229Z,10.00
2023-11-12T21:26:51.439Z,11.63
2023-11-12T21:29:19.428Z,10.37
2023-11-12T21:31:47.828Z,10.50
2023-11-12T21:34:15.163Z,9.77
2023-11-12T21:36:42.088Z,9.47
2023-11-12T21:39:11.216Z,10.83
2023-11-12T21:41:39.323Z,10.13
2023-11-12T21:44:08.710Z,9.13
2023-11-12T21:46:35.875Z,10.50
2023-11-12T21:49:02.856Z,9.30
2023-11-12T21:51:31.697Z,10.13
2023-11-12T21:53:58.488Z,10.37
2023-11-12T21:56:25.352Z,11.07
2023-11-12T21:58:52.139Z,10.00
2023-11-12T22:01:19.976Z,9.87
2023-11-12T22:03:47.042Z,10.00
2023-11-12T22:06:13.951Z,10.57
2023-11-12T22:08:40.765Z,9.77
2023-11-12T22:11:07.523Z,7.70
2023-11-12T22:13:34.271Z,8.20
2023-11-12T22:16:01.187Z,7.80
2023-11-12T22:18:28.802Z,6.87
2023-11-12T22:20:55.581Z,7.60
2023-11-12T22:23:23.577Z,7.80
2023-11-12T22:25:50.894Z,8.20
2023-11-12T22:28:17.939Z,8.07
2023-11-12T22:30:44.889Z,7.60
2023-11-12T22:33:11.691Z,8.80
2023-11-12T22:35:38.466Z,7.90
2023-11-12T22:38:05.276Z,7.73
2023-11-12T22:40:32.011Z,8.73
2023-11-12T22:42:58.828Z,8.13
2023-11-12T22:45:25.735Z,8.80
2023-11-12T22:47:53.590Z,9.40
2023-11-12T22:50:22.404Z,8.87
2023-11-12T22:52:49.409Z,7.00
2023-11-12T22:55:16.307Z,9.33
2023-11-12T22:57:44.637Z,7.77
2023-11-12T23:00:36.838Z,8.33
2023-11-12T23:03:10.182Z,7.13
2023-11-12T23:05:37.476Z,7.60
2023-11-12T23:08:07.146Z,6.70
2023-11-12T23:10:34.770Z,6.87
2023-11-12T23:13:02.001Z,6.90
2023-11-12T23:15:28.883Z,7.27
2023-11-12T23:17:55.705Z,6.70
2023-11-12T23:20:22.727Z,6.73
2023-11-12T23:22:49.573Z,5.57
2023-11-12T23:25:17.092Z,6.10
2023-11-12T23:27:43.990Z,6.90
2023-11-12T23:30:12.374Z,5.97
2023-11-12T23:32:40.186Z,6.33
2023-11-12T23:35:07.690Z,5.73
2023-11-12T23:37:35.259Z,5.97
2023-11-12T23:40:05.849Z,7.27
2023-11-12T23:42:32.691Z,6.70
2023-11-12T23:44:59.432Z,5.87
2023-11-12T23:47:26.308Z,6.27
2023-11-12T23:49:54.327Z,5.87
2023-11-12T23:52:21.321Z,6.00
2023-11-12T23:54:48.617Z,6.37
2023-11-12T23:57:15.520Z,6.43
2023-11-12T23:59:43.030Z,5.50
